Time;durP1;ratioP1;P1;durP2;ratioP2;P2;SDS_P1;SDS_P2;PMS_P1;PMS_P2;Temp;Humidity;BMP_temperature;BMP_pressure;BME280_temperature;BME280_humidity;BME280_pressure;Samples;Min_cycle;Max_cycle;Signal;HPM_P1;HPM_P2
2023/09/10 00:01:40;;;;;;;13.25;9.65;;;;;;;;;;4977970;28;20030;-90
2023/09/10 00:04:06;;;;;;;11.48;8.95;;;;;;;;;;4976829;28;20024;-88
2023/09/10 00:06:36;;;;;;;18.33;9.30;;;;;;;;;;4970245;28;20078;-89
2023/09/10 00:09:08;;;;;;;16.63;9.07;;;;;;;;;;4971603;28;20054;-89
2023/09/10 00:11:34;;;;;;;11.80;9.23;;;;;;;;;;4973368;28;20046;-87
2023/09/10 00:14:00;;;;;;;11.73;9.10;;;;;;;;;;4971625;28;20548;-88
2023/09/10 00:16:26;;;;;;;17.20;9.68;;;;;;;;;;4972999;28;20035;-88
2023/09/10 00:18:55;;;;;;;11.48;8.68;;;;;;;;;;4972682;28;20095;-89
2023/09/10 00:21:21;;;;;;;14.57;8.88;;;;;;;;;;4977740;28;20023;-90
2023/09/10 00:23:47;;;;;;;12.43;9.35;;;;;;;;;;4974524;28;20030;-88
2023/09/10 00:26:13;;;;;;;18.02;9.15;;;;;;;;;;4978978;28;20042;-88
2023/09/10 00:28:39;;;;;;;12.75;9.27;;;;;;;;;;4989877;28;20047;-89
2023/09/10 00:31:07;;;;;;;15.82;9.07;;;;;;;;;;4989750;28;20087;-88
2023/09/10 00:33:33;;;;;;;11.27;8.90;;;;;;;;;;4994891;28;20007;-88
2023/09/10 00:35:59;;;;;;;13.70;9.68;;;;;;;;;;4988818;28;20030;-87
2023/09/10 00:38:25;;;;;;;12.45;9.07;;;;;;;;;;4988396;28;20026;-88
2023/09/10 00:40:51;;;;;;;12.13;9.00;;;;;;;;;;5005468;28;20014;-88
2023/09/10 00:43:17;;;;;;;14.82;9.23;;;;;;;;;;4989190;28;20080;-88
2023/09/10 00:45:43;;;;;;;13.20;8.95;;;;;;;;;;4986743;28;20043;-88
2023/09/10 00:48:10;;;;;;;20.40;10.13;;;;;;;;;;4986725;28;20037;-89
2023/09/10 00:50:36;;;;;;;15.38;9.25;;;;;;;;;;4969511;28;20637;-87
2023/09/10 00:53:02;;;;;;;14.82;9.10;;;;;;;;;;4972797;28;20050;-87
2023/09/10 00:55:29;;;;;;;12.13;9.25;;;19.60;99.90;;;;;;4974289;28;20032;-87
2023/09/10 00:57:56;;;;;;;13.25;9.40;;;;;;;;;;4968504;28;20023;-88
2023/09/10 01:00:22;;;;;;;17.38;9.27;;;20.10;99.90;;;;;;4973936;28;20026;-88
2023/09/10 01:02:49;;;;;;;11.60;8.23;;;;;;;;;;4976715;28;20118;-90
2023/09/10 01:05:17;;;;;;;13.63;9.00;;;19.50;99.90;;;;;;4978057;28;20031;-88
2023/09/10 01:07:46;;;;;;;13.25;8.85;;;;;;;;;;4974898;28;20031;-88
2023/09/10 01:10:12;;;;;;;13.93;9.20;;;;;;;;;;4976264;28;20031;-88
2023/09/10 01:12:43;;;;;;;13.65;9.85;;;19.40;99.90;;;;;;4975859;28;20050;-89
2023/09/10 01:15:13;;;;;;;12.65;9.10;;;;;;;;;;4971661;28;20066;-87
2023/09/10 01:17:57;;;;;;;13.32;9.43;;;;;;;;;;4974955;28;20035;-90
2023/09/10 01:20:23;;;;;;;14.20;8.90;;;;;;;;;;4976736;28;20125;-88
2023/09/10 01:23:05;;;;;;;17.35;9.57;;;19.50;99.90;;;;;;4977322;28;20110;-89
2023/09/10 01:25:32;;;;;;;11.80;9.38;;;;;;;;;;4977521;28;20045;-89
2023/09/10 01:27:58;;;;;;;14.45;9.18;;;;;;;;;;4974382;28;20108;-90
2023/09/10 01:30:24;;;;;;;12.23;8.93;;;;;;;;;;4976444;28;20129;-89
2023/09/10 01:32:58;;;;;;;13.15;9.15;;;19.30;99.90;;;;;;4976597;28;20031;-88
2023/09/10 01:35:33;;;;;;;12.68;9.10;;;;;;;;;;4982279;28;20034;-89
2023/09/10 01:38:02;;;;;;;13.02;8.68;;;;;;;;;;4977299;28;20109;-89
2023/09/10 01:40:52;;;;;;;12.90;8.65;;;19.20;99.90;;;;;;4977212;28;20039;-88
2023/09/10 01:43:19;;;;;;;;;;;19.20;99.90;;;;;;4982026;28;20030;-89
2023/09/10 01:45:45;;;;;;;13.73;8.73;;;;;;;;;;4978928;28;19914;-88
2023/09/10 01:48:11;;;;;;;12.57;9.05;;;;;;;;;;4983154;28;20042;-88
2023/09/10 01:50:37;;;;;;;12.93;8.95;;;;;;;;;;4977099;28;21314;-88
2023/09/10 01:53:03;;;;;;;15.48;8.88;;;;;;;;;;4972787;28;20121;-88
2023/09/10 01:55:29;;;;;;;14.80;8.85;;;;;;;;;;4975178;28;20054;-89
2023/09/10 01:57:55;;;;;;;12.52;9.25;;;;;;;;;;4976557;28;20511;-88
2023/09/10 02:00:22;;;;;;;10.85;8.52;;;;;;;;;;4975727;28;20050;-88
2023/09/10 02:02:48;;;;;;;11.52;8.15;;;;;;;;;;4962384;28;20123;-89
2023/09/10 02:05:14;;;;;;;13.43;8.70;;;;;;;;;;4976778;28;20027;-90
2023/09/10 02:07:40;;;;;;;15.63;8.20;;;;;;;;;;4973306;28;20106;-88
2023/09/10 02:10:06;;;;;;;15.23;8.20;;;19.00;99.90;;;;;;4976169;28;20046;-88
2023/09/10 02:12:34;;;;;;;17.88;9.25;;;19.00;99.90;;;;;;4978249;28;20107;-91
2023/09/10 02:15:00;;;;;;;11.57;8.90;;;;;;;;;;4976055;28;20077;-88
2023/09/10 02:17:26;;;;;;;11.68;8.45;;;;;;;;;;4984160;28;20026;-89
2023/09/10 02:19:52;;;;;;;11.63;9.20;;;;;;;;;;4995108;28;20030;-87
2023/09/10 02:22:18;;;;;;;12.70;9.45;;;;;;;;;;4994582;28;20099;-88
2023/09/10 02:24:49;;;;;;;15.38;9.55;;;;;;;;;;4989963;28;20055;-89
2023/09/10 02:27:15;;;;;;;14.80;9.30;;;;;;;;;;4976635;28;20039;-88
2023/09/10 02:29:41;;;;;;;12.60;9.50;;;;;;;;;;4977876;28;20027;-89
2023/09/10 02:32:07;;;;;;;13.02;9.02;;;;;;;;;;4972783;28;20062;-87
2023/09/10 02:34:33;;;;;;;14.18;9.20;;;;;;;;;;4980460;28;20039;-91
2023/09/10 02:37:02;;;;;;;14.30;9.50;;;;;;;;;;4971589;28;20019;-88
2023/09/10 02:39:28;;;;;;;14.23;9.40;;;;;;;;;;4972537;28;20027;-89
2023/09/10 02:41:54;;;;;;;12.57;9.05;;;;;;;;;;4975434;28;20038;-87
2023/09/10 02:44:20;;;;;;;13.25;8.73;;;;;;;;;;4982343;28;20037;-88
2023/09/10 02:46:47;;;;;;;12.52;8.82;;;;;;;;;;4983877;28;20033;-87
2023/09/10 02:49:13;;;;;;;12.13;9.13;;;;;;;;;;4981735;28;20037;-88
2023/09/10 02:51:39;;;;;;;14.00;9.90;;;;;;;;;;4981842;28;20102;-87
2023/09/10 02:54:05;;;;;;;12.82;8.77;;;;;;;;;;4976340;28;20035;-89
2023/09/10 02:56:31;;;;;;;12.20;9.20;;;;;;;;;;4969338;28;20069;-89
2023/09/10 02:58:57;;;;;;;12.70;8.80;;;;;;;;;;4975125;28;20456;-88
2023/09/10 03:01:23;;;;;;;11.48;8.70;;;;;;;;;;4979150;28;20484;-89
2023/09/10 03:03:50;;;;;;;14.48;9.50;;;18.70;99.90;;;;;;4976368;28;20046;-87
2023/09/10 03:06:16;;;;;;;13.70;9.15;;;;;;;;;;4976540;28;20095;-89
2023/09/10 03:08:44;;;;;;;13.20;8.73;;;;;;;;;;4978302;28;20062;-90
2023/09/10 03:11:10;;;;;;;13.88;8.75;;;;;;;;;;4975659;28;20042;-90
2023/09/10 03:13:35;;;;;;;12.13;8.43;;;18.70;99.90;;;;;;4980896;28;20134;-88
2023/09/10 03:16:01;;;;;;;15.55;9.35;;;;;;;;;;4977575;28;20047;-91
2023/09/10 03:18:27;;;;;;;12.43;8.00;;;;;;;;;;4973567;28;20022;-88
2023/09/10 03:20:54;;;;;;;13.25;8.40;;;;;;;;;;4978191;28;20037;-89
2023/09/10 03:23:20;;;;;;;16.00;8.65;;;;;;;;;;4978450;28;20023;-89
2023/09/10 03:25:47;;;;;;;13.07;8.52;;;;;;;;;;4972913;28;20102;-87
2023/09/10 03:28:13;;;;;;;10.68;8.65;;;;;;;;;;4967128;28;20608;-89
2023/09/10 03:30:39;;;;;;;13.80;8.35;;;;;;;;;;4975288;28;20126;-89
2023/09/10 03:33:05;;;;;;;11.25;9.00;;;;;;;;;;4975219;28;20039;-89
2023/09/10 03:35:31;;;;;;;12.27;8.60;;;;;;;;;;4972315;28;20039;-90
2023/09/10 03:37:57;;;;;;;12.00;8.40;;;;;;;;;;4974741;28;20038;-88
2023/09/10 03:40:23;;;;;;;17.58;8.70;;;18.40;99.90;;;;;;4972122;28;20023;-90
2023/09/10 03:42:49;;;;;;;12.15;8.80;;;;;;;;;;4972978;28;20529;-88
2023/09/10 03:45:15;;;;;;;14.70;8.90;;;;;;;;;;4969329;28;20028;-89
2023/09/10 03:47:41;;;;;;;12.20;8.80;;;;;;;;;;4971476;28;20039;-89
2023/09/10 03:50:07;;;;;;;12.82;8.77;;;;;;;;;;4977111;28;20041;-86
2023/09/10 03:52:33;;;;;;;11.32;9.00;;;;;;;;;;4975233;28;20514;-90
2023/09/10 03:54:59;;;;;;;13.15;8.30;;;;;;;;;;4979629;28;20038;-90
2023/09/10 03:57:26;;;;;;;11.85;8.75;;;;;;;;;;4974161;28;20026;-89
2023/09/10 03:59:52;;;;;;;13.20;8.95;;;;;;;;;;4974968;28;20023;-90
2023/09/10 04:02:18;;;;;;;12.93;9.07;;;;;;;;;;4975616;28;20042;-88
2023/09/10 04:04:44;;;;;;;14.38;9.77;;;;;;;;;;4972698;28;20094;-88
2023/09/10 04:07:10;;;;;;;12.63;8.80;;;;;;;;;;4973154;28;20034;-89
2023/09/10 04:09:36;;;;;;;12.73;8.95;;;;;;;;;;4970710;28;20042;-89
2023/09/10 04:12:02;;;;;;;10.35;8.15;;;;;;;;;;4982165;28;20503;-89
2023/09/10 04:14:27;;;;;;;14.68;9.05;;;18.20;99.90;;;;;;4970221;28;20034;-89
2023/09/10 04:16:53;;;;;;;12.35;9.10;;;;;;;;;;4975348;28;20706;-91
2023/09/10 04:19:19;;;;;;;11.50;8.70;;;18.10;99.90;;;;;;4978493;28;20050;-90
2023/09/10 04:21:48;;;;;;;16.45;9.45;;;;;;;;;;4977178;28;20035;-90
2023/09/10 04:24:14;;;;;;;11.82;9.10;;;;;;;;;;4976020;28;20037;-88
2023/09/10 04:26:40;;;;;;;13.23;8.95;;;;;;;;;;4974960;28;20034;-90
2023/09/10 04:29:06;;;;;;;12.90;8.95;;;;;;;;;;4971577;28;20026;-89
2023/09/10 04:31:38;;;;;;;11.73;9.65;;;18.10;99.90;;;;;;4977440;28;20042;-89
2023/09/10 04:34:04;;;;;;;12.18;9.00;;;;;;;;;;4975782;28;20114;-91
2023/09/10 04:36:30;;;;;;;13.07;9.20;;;;;;;;;;4974741;28;20042;-89
2023/09/10 04:38:56;;;;;;;11.65;8.77;;;;;;;;;;4978866;28;20031;-91
2023/09/10 04:41:22;;;;;;;13.73;8.82;;;;;;;;;;4975500;28;20023;-89
2023/09/10 04:43:48;;;;;;;13.98;9.70;;;;;;;;;;4976417;28;20045;-89
2023/09/10 04:46:14;;;;;;;14.27;8.90;;;;;;;;;;4974853;28;20103;-89
2023/09/10 04:48:40;;;;;;;15.25;9.05;;;;;;;;;;4971993;28;20037;-89
2023/09/10 04:51:07;;;;;;;12.27;8.38;;;;;;;;;;4978810;28;20030;-89
2023/09/10 04:53:35;;;;;;;12.63;8.77;;;;;;;;;;4982597;28;20037;-90
2023/09/10 04:56:01;;;;;;;13.15;9.20;;;;;;;;;;4980785;28;20030;-89
2023/09/10 04:58:27;;;;;;;10.77;9.32;;;;;;;;;;4976549;28;20118;-88
2023/09/10 05:00:53;;;;;;;10.73;8.45;;;;;;;;;;4967080;28;20030;-89
2023/09/10 05:03:18;;;;;;;10.65;8.60;;;17.90;99.90;;;;;;4974222;28;20094;-91
2023/09/10 05:05:44;;;;;;;11.70;8.90;;;16.90;99.90;;;;;;4976086;28;20030;-88
2023/09/10 05:08:10;;;;;;;13.95;8.82;;;17.80;99.90;;;;;;4979031;28;20031;-90
2023/09/10 05:10:36;;;;;;;13.93;9.15;;;;;;;;;;4979285;28;20065;-89
2023/09/10 05:13:02;;;;;;;15.75;9.65;;;;;;;;;;4977191;28;20684;-90
2023/09/10 05:15:28;;;;;;;13.48;8.70;;;;;;;;;;4977973;28;20027;-91
2023/09/10 05:17:54;;;;;;;13.07;9.23;;;;;;;;;;4977256;28;20121;-90
2023/09/10 05:20:20;;;;;;;17.90;8.75;;;;;;;;;;4972761;28;20023;-88
2023/09/10 05:22:46;;;;;;;14.35;9.48;;;;;;;;;;4979903;28;20027;-88
2023/09/10 05:25:12;;;;;;;11.80;9.15;;;;;;;;;;4974647;28;20555;-88
2023/09/10 05:27:38;;;;;;;13.02;8.82;;;;;;;;;;4977248;28;20031;-88
2023/09/10 05:30:04;;;;;;;16.42;8.75;;;17.80;99.90;;;;;;4977047;28;20034;-88
2023/09/10 05:32:30;;;;;;;14.88;9.32;;;17.80;99.90;;;;;;4996237;28;20022;-88
2023/09/10 05:34:56;;;;;;;14.35;9.45;;;17.80;99.90;;;;;;4989827;28;20042;-88
2023/09/10 05:37:22;;;;;;;14.65;9.32;;;17.80;99.90;;;;;;4987595;28;20035;-88
2023/09/10 05:39:49;;;;;;;10.80;8.90;;;17.80;99.90;;;;;;4981549;28;20031;-89
2023/09/10 05:42:18;;;;;;;13.27;9.30;;;17.90;99.90;;;;;;4980506;28;20058;-90
2023/09/10 05:44:44;;;;;;;12.45;9.65;;;;;;;;;;4977482;28;20031;-90
2023/09/10 05:47:10;;;;;;;11.57;8.60;;;;;;;;;;4973155;28;20030;-90
2023/09/10 05:49:37;;;;;;;12.70;9.77;;;;;;;;;;4976541;28;20082;-90
2023/09/10 05:52:03;;;;;;;15.10;9.98;;;;;;;;;;4978938;28;20023;-88
2023/09/10 05:54:30;;;;;;;13.00;9.38;;;;;;;;;;4977216;28;20038;-89
2023/09/10 05:56:56;;;;;;;12.48;9.80;;;;;;;;;;4977899;28;20047;-89
2023/09/10 05:59:21;;;;;;;13.55;9.98;;;18.00;99.90;;;;;;4977765;28;20030;-87
2023/09/10 06:01:47;;;;;;;15.07;10.07;;;;;;;;;;4975953;28;20062;-88
2023/09/10 06:04:13;;;;;;;12.85;9.85;;;;;;;;;;4975568;28;20118;-89
2023/09/10 06:06:39;;;;;;;11.30;9.57;;;18.10;99.90;;;;;;4975214;28;20138;-91
2023/09/10 06:09:05;;;;;;;14.23;10.05;;;18.10;99.90;;;;;;4977335;28;20027;-89
2023/09/10 06:11:30;;;;;;;13.30;9.82;;;18.20;99.90;;;;;;4977439;28;20523;-90
2023/09/10 06:13:56;;;;;;;13.80;9.63;;;18.20;99.90;;;;;;4979852;28;20026;-89
2023/09/10 06:16:21;;;;;;;12.23;8.98;;;18.20;99.90;;;;;;4978622;28;20037;-89
2023/09/10 06:18:47;;;;;;;12.75;9.23;;;18.40;99.90;;;;;;4973739;28;20029;-89
2023/09/10 06:21:13;;;;;;;15.65;9.30;;;;;;;;;;4976646;28;20053;-89
2023/09/10 06:23:39;;;;;;;12.63;8.93;;;18.30;99.90;;;;;;4973139;28;20531;-89
2023/09/10 06:26:05;;;;;;;13.15;9.23;;;18.40;99.90;;;;;;4975783;28;20094;-90
2023/09/10 06:28:31;;;;;;;15.25;9.82;;;;;;;;;;4978507;28;20066;-89
2023/09/10 06:30:57;;;;;;;13.00;9.75;;;;;;;;;;4979209;28;20783;-89
2023/09/10 06:33:23;;;;;;;12.70;9.50;;;;;;;;;;4977423;28;20027;-88
2023/09/10 06:35:49;;;;;;;11.80;8.93;;;;;;;;;;4978772;28;20031;-89
2023/09/10 06:38:15;;;;;;;14.98;10.48;;;;;;;;;;4973407;28;20038;-88
2023/09/10 06:40:41;;;;;;;11.13;9.35;;;;;;;;;;4974634;28;20031;-89
2023/09/10 06:43:08;;;;;;;15.13;9.93;;;;;;;;;;4976024;28;20079;-88
2023/09/10 06:45:34;;;;;;;16.48;9.30;;;;;;;;;;4979730;28;20031;-86
2023/09/10 06:48:00;;;;;;;11.70;8.52;;;;;;;;;;4977933;28;20027;-88
2023/09/10 06:50:26;;;;;;;11.98;9.20;;;;;;;;;;4977854;28;20043;-88
2023/09/10 06:52:52;;;;;;;12.40;9.43;;;;;;;;;;4982884;28;20038;-86
2023/09/10 06:55:18;;;;;;;12.10;9.07;;;;;;;;;;4988027;28;20039;-87
2023/09/10 06:57:44;;;;;;;10.73;8.98;;;;;;;;;;4975964;28;20051;-86
2023/09/10 07:00:11;;;;;;;17.50;9.25;;;19.40;99.90;;;;;;4972192;28;20058;-88
2023/09/10 07:02:37;;;;;;;11.15;8.85;;;;;;;;;;4973227;28;20031;-86
2023/09/10 07:05:03;;;;;;;13.02;9.27;;;;;;;;;;4972258;28;20030;-88
2023/09/10 07:07:29;;;;;;;12.38;8.60;;;;;;;;;;4975845;28;20023;-87
2023/09/10 07:09:55;;;;;;;11.88;8.07;;;;;;;;;;4977615;28;20104;-88
2023/09/10 07:12:21;;;;;;;13.75;9.00;;;;;;;;;;4979013;28;20054;-87
2023/09/10 07:14:49;;;;;;;13.07;8.13;;;;;;;;;;4974126;28;20034;-89
2023/09/10 07:17:15;;;;;;;13.88;8.25;;;20.20;99.90;;;;;;4974358;28;20070;-87
2023/09/10 07:19:41;;;;;;;13.90;8.88;;;;;;;;;;4977700;28;20030;-89
2023/09/10 07:22:07;;;;;;;14.90;9.25;;;;;;;;;;4975343;28;20035;-89
2023/09/10 07:24:33;;;;;;;12.18;8.52;;;;;;;;;;4979986;28;20027;-88
2023/09/10 07:27:01;;;;;;;10.63;7.65;;;;;;;;;;4979135;28;20023;-88
2023/09/10 07:29:27;;;;;;;12.32;8.85;;;;;;;;;;4981648;28;20027;-88
2023/09/10 07:31:53;;;;;;;11.35;8.02;;;;;;;;;;4977659;28;20038;-88
2023/09/10 07:34:20;;;;;;;11.93;7.93;;;21.30;99.90;;;;;;4972455;28;20029;-88
2023/09/10 07:36:46;;;;;;;11.65;7.60;;;;;;;;;;4978164;28;20033;-89
2023/09/10 07:39:13;;;;;;;11.63;7.85;;;21.40;99.90;;;;;;4979006;28;20023;-89
2023/09/10 07:41:39;;;;;;;9.15;7.78;;;;;;;;;;4978071;28;20054;-88
2023/09/10 07:44:05;;;;;;;10.48;7.60;;;;;;;;;;4978744;28;20030;-89
2023/09/10 07:46:32;;;;;;;11.65;7.72;;;21.90;99.90;;;;;;4978348;28;20030;-89
2023/09/10 07:48:58;;;;;;;10.05;7.90;;;;;;;;;;4978492;28;20046;-88
2023/09/10 07:51:26;;;;;;;10.02;7.57;;;;;;;;;;4978632;28;20030;-89
2023/09/10 07:53:52;;;;;;;12.75;8.35;;;;;;;;;;4976966;28;20082;-87
2023/09/10 07:56:18;;;;;;;11.48;8.13;;;;;;;;;;4966299;28;20034;-87
2023/09/10 07:58:44;;;;;;;11.57;7.88;;;;;;;;;;4975340;28;20026;-89
2023/09/10 08:01:10;;;;;;;9.32;7.53;;;22.60;99.90;;;;;;4979050;28;20475;-89
2023/09/10 08:03:38;;;;;;;9.88;7.78;;;;;;;;;;4975358;28;20019;-89
2023/09/10 08:06:04;;;;;;;9.52;7.50;;;22.80;99.90;;;;;;4972218;28;20499;-89
2023/09/10 08:08:29;;;;;;;10.75;7.35;;;23.00;99.90;;;;;;4959579;28;20027;-89
2023/09/10 08:10:55;;;;;;;9.73;7.32;;;;;;;;;;4978841;28;20054;-88
2023/09/10 08:13:21;;;;;;;12.10;7.00;;;23.10;99.90;;;;;;4969642;28;20035;-90
2023/09/10 08:15:47;;;;;;;11.95;7.68;;;;;;;;;;4977838;28;20086;-90
2023/09/10 08:18:14;;;;;;;10.32;7.43;;;;;;;;;;4972385;28;20019;-89
2023/09/10 08:20:41;;;;;;;11.63;7.22;;;;;;;;;;4989112;28;20029;-86
2023/09/10 08:23:07;;;;;;;12.85;7.47;;;;;;;;;;4997880;28;20015;-87
2023/09/10 08:25:34;;;;;;;11.75;7.85;;;;;;;;;;4994375;28;20080;-85
2023/09/10 08:28:00;;;;;;;11.75;7.32;;;;;;;;;;4990638;28;20035;-87
2023/09/10 08:30:27;;;;;;;9.80;7.05;;;;;;;;;;4974182;28;20041;-87
2023/09/10 08:32:53;;;;;;;8.73;7.13;;;;;;;;;;4978124;28;20519;-87
2023/09/10 08:35:20;;;;;;;11.27;7.82;;;24.20;99.90;;;;;;4976289;28;20035;-86
2023/09/10 08:37:46;;;;;;;14.63;7.57;;;;;;;;;;4974267;28;20023;-87
2023/09/10 08:40:12;;;;;;;10.30;7.45;;;24.50;99.90;;;;;;4976410;28;20029;-88
2023/09/10 08:43:18;;;;;;;9.40;7.13;;;24.60;99.90;;;;;;4972769;28;20050;-87
2023/09/10 08:45:44;;;;;;;13.80;6.85;;;;;;;;;;4897340;29;20039;-89
2023/09/10 08:48:11;;;;;;;8.77;7.05;;;;;;;;;;4897620;29;20036;-88
2023/09/10 08:50:37;;;;;;;10.95;7.28;;;;;;;;;;4934654;28;20035;-89
2023/09/10 08:53:05;;;;;;;11.13;7.13;;;25.30;99.90;;;;;;4976472;28;20131;-89
2023/09/10 08:55:31;;;;;;;9.38;6.93;;;;;;;;;;4978055;28;20034;-88
2023/09/10 08:57:58;;;;;;;9.25;6.50;;;;;;;;;;4975977;28;20023;-88
2023/09/10 09:00:24;;;;;;;10.27;6.80;;;25.60;99.90;;;;;;4988681;28;20062;-89
2023/09/10 09:02:50;;;;;;;9.50;6.30;;;;;;;;;;4976570;28;20500;-87
2023/09/10 09:05:16;;;;;;;10.93;6.68;;;;;;;;;;4977998;28;20146;-87
2023/09/10 09:07:42;;;;;;;8.93;6.53;;;;;;;;;;4977565;28;20078;-87
2023/09/10 09:10:12;;;;;;;11.50;6.80;;;25.90;99.90;;;;;;4975190;28;20042;-89
2023/09/10 09:12:41;;;;;;;8.70;6.28;;;26.20;99.90;;;;;;4974909;28;20077;-87
2023/09/10 09:15:08;;;;;;;14.80;6.40;;;26.30;99.90;;;;;;4974548;28;20069;-87
2023/09/10 09:17:37;;;;;;;7.80;6.00;;;26.50;99.90;;;;;;4977372;28;20031;-87
2023/09/10 09:20:08;;;;;;;9.05;6.47;;;26.70;99.90;;;;;;4973583;28;20035;-87
2023/09/10 09:22:35;;;;;;;8.77;6.22;;;26.80;99.90;;;;;;4959021;28;20066;-87
2023/09/10 09:25:03;;;;;;;9.55;6.30;;;;;;;;;;4980696;28;20054;-86
2023/09/10 09:27:29;;;;;;;8.23;6.30;;;26.90;99.90;;;;;;4978127;28;20027;-87
2023/09/10 09:29:55;;;;;;;9.73;6.38;;;26.90;99.90;;;;;;4978673;28;20036;-88
2023/09/10 09:32:21;;;;;;;12.40;6.22;;;27.10;99.90;;;;;;4975850;28;20065;-87
2023/09/10 09:34:46;;;;;;;11.35;6.45;;;27.20;99.90;;;;;;4976075;28;20023;-87
2023/09/10 09:37:20;;;;;;;8.07;6.30;;;27.40;99.90;;;;;;4975944;28;20077;-89
2023/09/10 09:39:46;;;;;;;8.73;7.10;;;;;;;;;;4977972;28;20031;-87
2023/09/10 09:42:17;;;;;;;8.60;6.25;;;;;;;;;;4981256;28;20259;-88
2023/09/10 09:44:44;;;;;;;7.35;5.43;;;;;;;;;;4984589;28;20114;-88
2023/09/10 09:47:16;;;;;;;9.02;5.70;;;;;;;;;;4983162;28;20027;-89
2023/09/10 09:49:45;;;;;;;7.57;5.97;;;27.70;99.90;;;;;;4980807;28;20031;-85
2023/09/10 09:52:12;;;;;;;7.40;5.82;;;;;;;;;;4981838;28;20034;-86
2023/09/10 09:54:39;;;;;;;8.88;6.13;;;;;;;;;;4979462;28;20062;-87
2023/09/10 09:57:05;;;;;;;8.20;6.00;;;;;;;;;;4982200;28;20093;-87
2023/09/10 09:59:37;;;;;;;6.22;5.43;;;28.20;99.90;;;;;;4983611;28;20115;-86
2023/09/10 10:02:03;;;;;;;7.80;5.30;;;28.30;99.90;;;;;;4968894;28;20034;-87
2023/09/10 10:04:32;;;;;;;13.45;5.78;;;28.30;99.90;;;;;;4978182;28;20023;-85
2023/09/10 10:06:59;;;;;;;7.72;5.80;;;28.40;99.90;;;;;;4981524;28;20082;-84
2023/09/10 10:09:34;;;;;;;6.70;5.18;;;28.40;99.90;;;;;;4980123;28;20034;-85
2023/09/10 10:12:02;;;;;;;10.35;5.68;;;28.50;99.90;;;;;;4978330;28;20026;-86
2023/09/10 10:14:30;;;;;;;7.68;5.25;;;28.60;99.90;;;;;;4985064;28;20481;-85
2023/09/10 10:16:56;;;;;;;8.40;5.30;;;;;;;;;;4981916;28;20024;-84
2023/09/10 10:19:25;;;;;;;8.25;5.60;;;;;;;;;;4978506;28;20026;-86
2023/09/10 10:21:52;;;;;;;;;;;28.80;99.90;;;;;;4975616;28;20516;-85
2023/09/10 10:24:19;;;;;;;10.35;5.53;;;28.90;99.90;;;;;;4963100;28;19918;-85
2023/09/10 10:26:47;;;;;;;7.60;4.93;;;29.00;99.90;;;;;;4979257;28;20085;-85
2023/09/10 10:29:13;;;;;;;6.43;4.95;;;;;;;;;;4979485;28;20945;-86
2023/09/10 10:31:41;;;;;;;7.53;4.65;;;29.10;99.90;;;;;;4978905;28;20110;-85
2023/09/10 10:34:22;;;;;;;9.07;4.82;;;29.20;99.90;;;;;;4977784;28;20035;-87
2023/09/10 10:36:50;;;;;;;11.38;5.25;;;29.20;99.70;;;;;;4979381;28;20057;-85
2023/09/10 10:39:20;;;;;;;9.50;5.20;;;29.20;99.00;;;;;;4981086;28;20107;-84
2023/09/10 10:41:50;;;;;;;;;;;29.20;99.10;;;;;;4979690;28;20050;-86
2023/09/10 10:44:16;;;;;;;8.65;4.60;;;;;;;;;;4977609;28;19933;-85
2023/09/10 10:46:46;;;;;;;6.32;4.75;;;29.40;99.60;;;;;;4973134;28;21322;-83
2023/09/10 10:49:12;;;;;;;7.00;4.20;;;;;;;;;;4968800;28;20034;-85
2023/09/10 10:51:45;;;;;;;7.43;4.47;;;29.40;98.30;;;;;;4974685;28;20376;-84
2023/09/10 10:54:14;;;;;;;12.35;4.53;;;29.50;98.00;;;;;;4975350;28;20034;-85
2023/09/10 10:56:40;;;;;;;9.35;4.43;;;;;;;;;;4973969;28;20022;-87
2023/09/10 10:59:06;;;;;;;10.88;4.70;;;;;;;;;;4975260;28;20050;-85
2023/09/10 11:01:32;;;;;;;8.35;4.55;;;29.80;98.00;;;;;;4994552;28;20034;-85
2023/09/10 11:03:58;;;;;;;9.63;4.40;;;;;;;;;;4980843;28;20104;-86
2023/09/10 11:06:24;;;;;;;9.82;4.40;;;;;;;;;;4979312;28;20066;-85
2023/09/10 11:08:50;;;;;;;7.90;4.68;;;;;;;;;;4971422;28;20031;-85
2023/09/10 11:11:34;;;;;;;13.50;4.90;;;29.90;96.40;;;;;;4974414;28;20101;-84
2023/09/10 11:14:02;;;;;;;10.45;4.28;;;30.00;95.80;;;;;;4970664;28;20133;-84
2023/09/10 11:16:35;;;;;;;12.25;4.18;;;30.00;95.80;;;;;;4967954;28;20031;-84
2023/09/10 11:19:03;;;;;;;9.57;4.53;;;30.10;96.10;;;;;;4967958;28;20077;-84
2023/09/10 11:21:53;;;;;;;9.43;3.88;;;30.10;95.40;;;;;;4973417;28;20023;-84
2023/09/10 11:24:19;;;;;;;13.40;4.10;;;;;;;;;;4974850;28;20035;-84
2023/09/10 11:26:45;;;;;;;10.30;3.72;;;;;;;;;;4979733;28;20083;-87
2023/09/10 11:29:19;;;;;;;10.43;4.00;;;30.00;94.00;;;;;;4978645;28;20057;-86
2023/09/10 11:31:51;;;;;;;10.13;3.67;;;30.00;94.00;;;;;;4977367;28;20415;-84
2023/09/10 11:34:17;;;;;;;9.55;3.90;;;;;;;;;;4979060;28;20074;-85
2023/09/10 11:36:46;;;;;;;10.95;4.45;;;;;;;;;;4981625;28;20027;-85
2023/09/10 11:39:14;;;;;;;8.57;4.17;;;30.20;94.60;;;;;;4973743;28;20027;-84
2023/09/10 11:41:44;;;;;;;11.32;4.20;;;30.30;93.90;;;;;;4978350;28;20030;-85
2023/09/10 11:44:10;;;;;;;10.23;4.22;;;;;;;;;;4972744;28;20027;-84
2023/09/10 11:46:42;;;;;;;9.70;4.00;;;;;;;;;;4976085;28;20055;-86
2023/09/10 11:49:08;;;;;;;8.85;4.28;;;;;;;;;;4976234;28;20648;-83
2023/09/10 11:51:41;;;;;;;10.18;4.15;;;30.40;93.60;;;;;;4976506;28;20065;-83
2023/09/10 11:54:07;;;;;;;8.35;3.92;;;;;;;;;;4978807;28;20038;-84
2023/09/10 11:56:33;;;;;;;11.32;3.85;;;;;;;;;;4980512;28;20019;-83
2023/09/10 11:58:59;;;;;;;10.23;3.80;;;;;;;;;;4977900;28;20108;-83
2023/09/10 12:01:25;;;;;;;13.20;3.70;;;;;;;;;;4977116;28;20075;-85
2023/09/10 12:03:51;;;;;;;11.32;3.97;;;;;;;;;;4983911;28;20031;-84
2023/09/10 12:06:18;;;;;;;11.35;4.30;;;;;;;;;;4981243;28;20058;-85
2023/09/10 12:08:44;;;;;;;8.57;4.03;;;;;;;;;;4979938;28;20054;-83
2023/09/10 12:11:15;;;;;;;9.57;4.28;;;30.70;91.60;;;;;;4973534;28;20122;-83
2023/09/10 12:13:41;;;;;;;12.32;3.70;;;;;;;;;;4975402;28;20033;-84
2023/09/10 12:16:07;;;;;;;11.68;4.55;;;;;;;;;;4980924;28;20027;-84
2023/09/10 12:18:34;;;;;;;7.93;4.15;;;;;;;;;;4978314;28;20473;-83
2023/09/10 12:21:00;;;;;;;13.10;4.05;;;;;;;;;;4976408;28;20058;-84
2023/09/10 12:23:27;;;;;;;14.23;4.22;;;;;;;;;;4978829;28;20054;-83
2023/09/10 12:25:57;;;;;;;12.02;4.15;;;30.90;90.00;;;;;;4978655;28;20038;-84
2023/09/10 12:28:26;;;;;;;14.10;3.83;;;;;;;;;;4982509;28;20026;-84
2023/09/10 12:30:52;;;;;;;8.50;3.67;;;30.90;89.80;;;;;;4975965;28;20035;-85
2023/09/10 12:33:20;;;;;;;12.18;4.28;;;;;;;;;;4981014;28;20065;-84
2023/09/10 12:35:46;;;;;;;11.07;3.80;;;;;;;;;;4980118;28;20034;-84
2023/09/10 12:38:16;;;;;;;9.40;3.78;;;;;;;;;;4982249;28;20031;-84
2023/09/10 12:40:42;;;;;;;;;;;30.90;88.50;;;;;;4980033;28;20019;-87
2023/09/10 12:43:08;;;;;;;12.98;4.10;;;31.00;88.10;;;;;;4982097;28;20004;-85
2023/09/10 12:45:35;;;;;;;10.32;3.75;;;;;;;;;;4982653;28;20039;-85
2023/09/10 12:48:01;;;;;;;16.27;4.55;;;;;;;;;;4986492;28;20126;-86
2023/09/10 12:50:37;;;;;;;14.30;4.07;;;;;;;;;;4982042;28;20058;-86
2023/09/10 12:53:06;;;;;;;7.75;4.00;;;;;;;;;;4978545;28;20081;-86
2023/09/10 12:55:56;;;;;;;11.63;4.07;;;;;;;;;;4970745;28;20041;-87
2023/09/10 12:58:47;;;;;;;10.07;3.85;;;31.20;87.20;;;;;;4979963;28;20133;-85
2023/09/10 13:01:39;;;;;;;12.60;4.70;;;;;;;;;;4957027;28;20379;-84
2023/09/10 13:19:54;;;;;;;;;;;30.80;87.10;;;;;;4918637;29;20055;-84
2023/09/10 13:23:04;;;;;;;13.38;3.75;;;;;;;;;;4915968;29;19916;-85
2023/09/10 13:25:36;;;;;;;10.75;4.05;;;;;;;;;;4902419;29;20028;-85
2023/09/10 13:28:03;;;;;;;17.60;4.55;;;;;;;;;;4901720;29;20036;-83
2023/09/10 13:30:29;;;;;;;13.90;4.32;;;;;;;;;;4903863;29;20103;-82
2023/09/10 13:32:55;;;;;;;13.32;4.25;;;;;;;;;;4899234;29;20048;-83
2023/09/10 13:35:24;;;;;;;16.95;4.40;;;;;;;;;;4916779;29;20040;-84
2023/09/10 13:37:50;;;;;;;11.45;4.00;;;;;;;;;;4917365;29;20114;-84
2023/09/10 13:40:16;;;;;;;12.20;4.30;;;;;;;;;;4908202;29;20088;-84
2023/09/10 13:42:43;;;;;;;11.80;3.90;;;;;;;;;;4924195;29;20049;-83
2023/09/10 13:45:09;;;;;;;12.25;4.53;;;;;;;;;;4910602;29;20083;-82
2023/09/10 13:47:35;;;;;;;10.82;4.45;;;;;;;;;;4902563;29;20301;-85
2023/09/10 13:50:04;;;;;;;12.65;4.35;;;;;;;;;;4924141;29;20037;-82
2023/09/10 13:52:30;;;;;;;16.55;5.28;;;;;;;;;;4919171;29;20041;-82
2023/09/10 13:54:56;;;;;;;12.23;4.88;;;;;;;;;;4927685;29;20037;-83
2023/09/10 13:57:23;;;;;;;12.50;4.07;;;;;;;;;;4916584;29;20029;-85
2023/09/10 13:59:52;;;;;;;10.27;4.13;;;;;;;;;;4906198;29;20033;-85
2023/09/10 14:02:18;;;;;;;9.00;4.35;;;;;;;;;;4918670;29;20033;-84
2023/09/10 14:04:44;;;;;;;16.33;4.53;;;;;;;;;;4905486;29;20040;-85
2023/09/10 14:07:10;;;;;;;11.40;4.32;;;;;;;;;;4920839;29;20036;-85
2023/09/10 14:09:36;;;;;;;11.20;4.72;;;;;;;;;;4916949;29;20075;-83
2023/09/10 14:12:03;;;;;;;18.48;5.20;;;;;;;;;;4921226;29;20087;-84
2023/09/10 14:17:18;;;;;;;13.70;4.82;;;;;;;;;;4940898;29;20028;-85
2023/09/10 14:19:44;;;;;;;8.75;4.47;;;;;;;;;;4911981;29;20045;-84